sensor_id;sensor_type;location;lat;lon;timestamp;pressure;altitude;pressure_sealevel;temperature;humidity
69153;BME280;56261;51.580;4.578;2023-05-08T00:01:45;102114.44;;;16.06;100.00
69153;BME280;56261;51.580;4.578;2023-05-08T00:04:11;102115.41;;;16.13;100.00
69153;BME280;56261;51.580;4.578;2023-05-08T00:06:36;102121.16;;;16.10;100.00
69153;BME280;56261;51.580;4.578;2023-05-08T00:09:01;102119.69;;;15.99;100.00
69153;BME280;56261;51.580;4.578;2023-05-08T00:11:27;102124.53;;;16.04;100.00
69153;BME280;56261;51.580;4.578;2023-05-08T00:13:52;102125.38;;;16.04;100.00
69153;BME280;56261;51.580;4.578;2023-05-08T00:16:18;102111.09;;;16.04;100.00
69153;BME280;56261;51.580;4.578;2023-05-08T00:18:43;102111.75;;;16.06;100.00
69153;BME280;56261;51.580;4.578;2023-05-08T00:21:08;102115.97;;;16.00;100.00
69153;BME280;56261;51.580;4.578;2023-05-08T00:23:34;102119.56;;;15.84;100.00
69153;BME280;56261;51.580;4.578;2023-05-08T00:25:59;102113.66;;;15.89;100.00
69153;BME280;56261;51.580;4.578;2023-05-08T00:28:25;102117.69;;;15.93;100.00
69153;BME280;56261;51.580;4.578;2023-05-08T00:30:50;102106.59;;;15.88;100.00
69153;BME280;56261;51.580;4.578;2023-05-08T00:33:16;102114.31;;;15.91;100.00
69153;BME280;56261;51.580;4.578;2023-05-08T00:35:42;102116.03;;;15.84;100.00
69153;BME280;56261;51.580;4.578;2023-05-08T00:38:08;102119.56;;;15.76;100.00
69153;BME280;56261;51.580;4.578;2023-05-08T00:40:34;102116.56;;;15.71;100.00
69153;BME280;56261;51.580;4.578;2023-05-08T00:42:59;102119.94;;;15.73;100.00
69153;BME280;56261;51.580;4.578;2023-05-08T00:45:33;102115.69;;;15.70;100.00
69153;BME280;56261;51.580;4.578;2023-05-08T00:48:00;102111.50;;;15.76;100.00
69153;BME280;56261;51.580;4.578;2023-05-08T00:50:26;102122.09;;;15.77;100.00
69153;BME280;56261;51.580;4.578;2023-05-08T00:52:52;102118.06;;;15.73;100.00
69153;BME280;56261;51.580;4.578;2023-05-08T00:55:18;102122.78;;;15.63;100.00
69153;BME280;56261;51.580;4.578;2023-05-08T00:57:46;102124.47;;;15.56;100.00
69153;BME280;56261;51.580;4.578;2023-05-08T01:00:12;102119.59;;;15.51;100.00
69153;BME280;56261;51.580;4.578;2023-05-08T01:02:39;102124.50;;;15.31;100.00
69153;BME280;56261;51.580;4.578;2023-05-08T01:05:05;102121.66;;;15.41;100.00
69153;BME280;56261;51.580;4.578;2023-05-08T01:07:32;102114.09;;;15.28;100.00
69153;BME280;56261;51.580;4.578;2023-05-08T01:09:57;102108.19;;;15.25;100.00
69153;BME280;56261;51.580;4.578;2023-05-08T01:15:23;102113.75;;;15.15;100.00
69153;BME280;56261;51.580;4.578;2023-05-08T01:18:20;102110.56;;;15.28;100.00
69153;BME280;56261;51.580;4.578;2023-05-08T01:29:42;102112.94;;;14.98;100.00
69153;BME280;56261;51.580;4.578;2023-05-08T01:32:25;102106.38;;;14.92;100.00
69153;BME280;56261;51.580;4.578;2023-05-08T01:40:16;102122.47;;;14.84;100.00
69153;BME280;56261;51.580;4.578;2023-05-08T01:45:13;102121.47;;;14.85;100.00
69153;BME280;56261;51.580;4.578;2023-05-08T01:47:41;102128.03;;;14.83;100.00
69153;BME280;56261;51.580;4.578;2023-05-08T01:50:15;102122.66;;;14.83;100.00
69153;BME280;56261;51.580;4.578;2023-05-08T01:52:48;102120.28;;;14.71;100.00
69153;BME280;56261;51.580;4.578;2023-05-08T01:55:20;102130.34;;;14.78;100.00
69153;BME280;56261;51.580;4.578;2023-05-08T01:57:51;102135.38;;;14.72;100.00
69153;BME280;56261;51.580;4.578;2023-05-08T02:00:20;102135.88;;;14.68;100.00
69153;BME280;56261;51.580;4.578;2023-05-08T02:02:47;102134.22;;;14.67;100.00
69153;BME280;56261;51.580;4.578;2023-05-08T02:05:13;102146.63;;;14.68;100.00
69153;BME280;56261;51.580;4.578;2023-05-08T02:07:41;102149.13;;;14.61;100.00
69153;BME280;56261;51.580;4.578;2023-05-08T02:10:08;102151.31;;;14.66;100.00
69153;BME280;56261;51.580;4.578;2023-05-08T02:12:36;102151.47;;;14.64;100.00
69153;BME280;56261;51.580;4.578;2023-05-08T02:15:04;102149.47;;;14.58;100.00
69153;BME280;56261;51.580;4.578;2023-05-08T02:17:30;102155.00;;;14.57;100.00
69153;BME280;56261;51.580;4.578;2023-05-08T02:19:57;102159.53;;;14.56;100.00
69153;BME280;56261;51.580;4.578;2023-05-08T02:22:25;102156.16;;;14.62;100.00
69153;BME280;56261;51.580;4.578;2023-05-08T02:24:55;102156.50;;;14.59;100.00
69153;BME280;56261;51.580;4.578;2023-05-08T02:27:24;102157.34;;;14.60;100.00
69153;BME280;56261;51.580;4.578;2023-05-08T02:29:51;102155.00;;;14.57;100.00
69153;BME280;56261;51.580;4.578;2023-05-08T02:32:18;102160.22;;;14.58;100.00
69153;BME280;56261;51.580;4.578;2023-05-08T02:34:46;102154.31;;;14.55;100.00
69153;BME280;56261;51.580;4.578;2023-05-08T02:37:13;102154.63;;;14.51;100.00
69153;BME280;56261;51.580;4.578;2023-05-08T02:39:41;102155.59;;;14.50;100.00
69153;BME280;56261;51.580;4.578;2023-05-08T02:42:08;102153.91;;;14.41;100.00
69153;BME280;56261;51.580;4.578;2023-05-08T02:44:33;102144.69;;;14.36;100.00
69153;BME280;56261;51.580;4.578;2023-05-08T02:47:05;102145.63;;;14.26;100.00
69153;BME280;56261;51.580;4.578;2023-05-08T02:49:42;102147.31;;;14.27;100.00
69153;BME280;56261;51.580;4.578;2023-05-08T02:52:23;102143.75;;;14.19;100.00
69153;BME280;56261;51.580;4.578;2023-05-08T02:55:22;102138.03;;;14.14;100.00
69153;BME280;56261;51.580;4.578;2023-05-08T03:00:48;102128.00;;;14.16;100.00
69153;BME280;56261;51.580;4.578;2023-05-08T03:03:21;102132.34;;;14.17;100.00
69153;BME280;56261;51.580;4.578;2023-05-08T03:05:53;102116.72;;;14.12;100.00
69153;BME280;56261;51.580;4.578;2023-05-08T03:08:25;102131.81;;;14.13;100.00
69153;BME280;56261;51.580;4.578;2023-05-08T03:10:55;102126.81;;;14.18;100.00
69153;BME280;56261;51.580;4.578;2023-05-08T03:13:22;102134.53;;;14.21;100.00
69153;BME280;56261;51.580;4.578;2023-05-08T03:15:52;102134.88;;;14.18;100.00
69153;BME280;56261;51.580;4.578;2023-05-08T03:18:22;102130.97;;;14.12;100.00
69153;BME280;56261;51.580;4.578;2023-05-08T03:20:51;102128.19;;;14.22;100.00
69153;BME280;56261;51.580;4.578;2023-05-08T03:23:19;102133.84;;;14.19;100.00
69153;BME280;56261;51.580;4.578;2023-05-08T03:25:46;102128.28;;;14.12;100.00
69153;BME280;56261;51.580;4.578;2023-05-08T03:28:12;102133.03;;;14.19;100.00
69153;BME280;56261;51.580;4.578;2023-05-08T03:30:40;102138.59;;;14.25;100.00
69153;BME280;56261;51.580;4.578;2023-05-08T03:33:07;102137.06;;;14.23;100.00
69153;BME280;56261;51.580;4.578;2023-05-08T03:35:36;102138.72;;;14.16;100.00
69153;BME280;56261;51.580;4.578;2023-05-08T03:38:02;102136.81;;;14.08;100.00
69153;BME280;56261;51.580;4.578;2023-05-08T03:40:27;102135.66;;;14.10;100.00
69153;BME280;56261;51.580;4.578;2023-05-08T03:42:53;102139.50;;;14.08;100.00
69153;BME280;56261;51.580;4.578;2023-05-08T03:45:19;102137.38;;;13.85;100.00
69153;BME280;56261;51.580;4.578;2023-05-08T03:47:45;102138.88;;;13.80;100.00
69153;BME280;56261;51.580;4.578;2023-05-08T03:50:12;102134.34;;;13.80;100.00
69153;BME280;56261;51.580;4.578;2023-05-08T03:52:38;102131.97;;;13.77;100.00
69153;BME280;56261;51.580;4.578;2023-05-08T03:55:04;102116.75;;;13.78;100.00
69153;BME280;56261;51.580;4.578;2023-05-08T03:57:35;102128.47;;;13.77;100.00
69153;BME280;56261;51.580;4.578;2023-05-08T04:00:13;102127.00;;;13.90;100.00
69153;BME280;56261;51.580;4.578;2023-05-08T04:05:34;102121.66;;;13.90;100.00
69153;BME280;56261;51.580;4.578;2023-05-08T04:08:38;102124.81;;;13.86;100.00
69153;BME280;56261;51.580;4.578;2023-05-08T04:11:06;102123.00;;;13.86;100.00
69153;BME280;56261;51.580;4.578;2023-05-08T04:13:40;102132.19;;;13.84;100.00
69153;BME280;56261;51.580;4.578;2023-05-08T04:16:19;102139.25;;;13.85;100.00
69153;BME280;56261;51.580;4.578;2023-05-08T04:18:46;102135.94;;;13.91;100.00
69153;BME280;56261;51.580;4.578;2023-05-08T04:21:18;102141.94;;;13.93;100.00
69153;BME280;56261;51.580;4.578;2023-05-08T04:23:45;102139.34;;;14.09;100.00
69153;BME280;56261;51.580;4.578;2023-05-08T04:26:13;102143.72;;;14.10;100.00
69153;BME280;56261;51.580;4.578;2023-05-08T04:28:44;102146.78;;;14.16;100.00
69153;BME280;56261;51.580;4.578;2023-05-08T04:31:13;102142.31;;;13.98;100.00
69153;BME280;56261;51.580;4.578;2023-05-08T04:33:39;102142.19;;;14.08;100.00
69153;BME280;56261;51.580;4.578;2023-05-08T04:36:12;102148.97;;;14.20;100.00
69153;BME280;56261;51.580;4.578;2023-05-08T04:38:38;102149.59;;;14.14;100.00
69153;BME280;56261;51.580;4.578;2023-05-08T04:41:04;102146.56;;;14.09;100.00
69153;BME280;56261;51.580;4.578;2023-05-08T04:43:29;102151.28;;;14.15;100.00
69153;BME280;56261;51.580;4.578;2023-05-08T04:45:55;102153.06;;;14.06;100.00
69153;BME280;56261;51.580;4.578;2023-05-08T04:48:20;102164.88;;;14.14;100.00
69153;BME280;56261;51.580;4.578;2023-05-08T04:50:46;102168.47;;;13.96;100.00
69153;BME280;56261;51.580;4.578;2023-05-08T04:53:11;102171.28;;;13.86;100.00
69153;BME280;56261;51.580;4.578;2023-05-08T04:55:36;102170.84;;;13.73;100.00
69153;BME280;56261;51.580;4.578;2023-05-08T04:58:02;102163.03;;;13.62;100.00
69153;BME280;56261;51.580;4.578;2023-05-08T05:00:27;102171.91;;;13.80;100.00
69153;BME280;56261;51.580;4.578;2023-05-08T05:02:52;102170.38;;;13.78;100.00
69153;BME280;56261;51.580;4.578;2023-05-08T05:05:18;102178.56;;;13.76;100.00
69153;BME280;56261;51.580;4.578;2023-05-08T05:07:43;102180.16;;;13.87;100.00
69153;BME280;56261;51.580;4.578;2023-05-08T05:10:09;102182.19;;;13.93;100.00
69153;BME280;56261;51.580;4.578;2023-05-08T05:12:34;102187.38;;;13.86;100.00
69153;BME280;56261;51.580;4.578;2023-05-08T05:15:00;102191.38;;;13.90;100.00
69153;BME280;56261;51.580;4.578;2023-05-08T05:17:25;102191.97;;;14.02;100.00
69153;BME280;56261;51.580;4.578;2023-05-08T05:19:51;102199.50;;;13.99;100.00
69153;BME280;56261;51.580;4.578;2023-05-08T05:22:17;102200.38;;;14.07;100.00
69153;BME280;56261;51.580;4.578;2023-05-08T05:24:42;102200.72;;;14.04;100.00
69153;BME280;56261;51.580;4.578;2023-05-08T05:27:07;102207.94;;;14.12;100.00
69153;BME280;56261;51.580;4.578;2023-05-08T05:29:33;102207.94;;;14.12;100.00
69153;BME280;56261;51.580;4.578;2023-05-08T05:31:58;102208.22;;;14.01;100.00
69153;BME280;56261;51.580;4.578;2023-05-08T05:34:23;102211.66;;;14.11;100.00
69153;BME280;56261;51.580;4.578;2023-05-08T05:36:49;102209.03;;;14.27;100.00
69153;BME280;56261;51.580;4.578;2023-05-08T05:39:14;102211.72;;;14.27;100.00
69153;BME280;56261;51.580;4.578;2023-05-08T05:41:40;102205.75;;;14.42;100.00
69153;BME280;56261;51.580;4.578;2023-05-08T05:44:08;102213.50;;;14.45;100.00
69153;BME280;56261;51.580;4.578;2023-05-08T05:46:33;102226.56;;;14.48;100.00
69153;BME280;56261;51.580;4.578;2023-05-08T05:48:59;102223.50;;;14.35;100.00
69153;BME280;56261;51.580;4.578;2023-05-08T05:51:25;102226.38;;;14.41;100.00
69153;BME280;56261;51.580;4.578;2023-05-08T05:53:51;102234.28;;;14.43;100.00
69153;BME280;56261;51.580;4.578;2023-05-08T05:56:17;102234.47;;;14.49;100.00
69153;BME280;56261;51.580;4.578;2023-05-08T05:58:42;102240.13;;;14.38;100.00
69153;BME280;56261;51.580;4.578;2023-05-08T06:01:10;102237.44;;;14.38;100.00
69153;BME280;56261;51.580;4.578;2023-05-08T06:03:35;102248.19;;;14.38;100.00
69153;BME280;56261;51.580;4.578;2023-05-08T06:06:02;102235.41;;;14.32;100.00
69153;BME280;56261;51.580;4.578;2023-05-08T06:08:28;102236.78;;;14.10;100.00
69153;BME280;56261;51.580;4.578;2023-05-08T06:10:53;102240.56;;;14.25;100.00
69153;BME280;56261;51.580;4.578;2023-05-08T06:13:19;102229.88;;;14.33;100.00
69153;BME280;56261;51.580;4.578;2023-05-08T06:15:44;102241.16;;;14.45;100.00
69153;BME280;56261;51.580;4.578;2023-05-08T06:18:09;102237.53;;;14.55;100.00
69153;BME280;56261;51.580;4.578;2023-05-08T06:20:36;102230.19;;;14.57;100.00
69153;BME280;56261;51.580;4.578;2023-05-08T06:23:02;102237.97;;;14.76;100.00
69153;BME280;56261;51.580;4.578;2023-05-08T06:25:28;102239.69;;;14.85;100.00
69153;BME280;56261;51.580;4.578;2023-05-08T06:27:53;102220.69;;;14.44;100.00
69153;BME280;56261;51.580;4.578;2023-05-08T06:30:19;102241.31;;;14.44;100.00
69153;BME280;56261;51.580;4.578;2023-05-08T06:32:44;102244.78;;;14.62;100.00
69153;BME280;56261;51.580;4.578;2023-05-08T06:35:09;102243.72;;;14.89;100.00
69153;BME280;56261;51.580;4.578;2023-05-08T06:37:36;102247.63;;;15.03;100.00
69153;BME280;56261;51.580;4.578;2023-05-08T06:40:01;102253.56;;;14.72;100.00
69153;BME280;56261;51.580;4.578;2023-05-08T06:42:28;102251.06;;;14.79;100.00
69153;BME280;56261;51.580;4.578;2023-05-08T06:44:54;102256.78;;;14.50;100.00
69153;BME280;56261;51.580;4.578;2023-05-08T06:47:19;102252.75;;;14.80;100.00
69153;BME280;56261;51.580;4.578;2023-05-08T06:49:45;102243.75;;;14.55;100.00
69153;BME280;56261;51.580;4.578;2023-05-08T06:52:10;102257.56;;;14.60;100.00
69153;BME280;56261;51.580;4.578;2023-05-08T06:54:36;102249.94;;;14.90;100.00
69153;BME280;56261;51.580;4.578;2023-05-08T06:57:01;102247.78;;;15.10;100.00
69153;BME280;56261;51.580;4.578;2023-05-08T06:59:26;102254.22;;;15.42;100.00
69153;BME280;56261;51.580;4.578;2023-05-08T07:01:52;102255.41;;;15.55;100.00
69153;BME280;56261;51.580;4.578;2023-05-08T07:04:17;102258.09;;;15.55;100.00
69153;BME280;56261;51.580;4.578;2023-05-08T07:06:42;102252.56;;;15.57;100.00
69153;BME280;56261;51.580;4.578;2023-05-08T07:09:08;102254.41;;;15.56;100.00
69153;BME280;56261;51.580;4.578;2023-05-08T07:11:34;102260.44;;;15.42;100.00
69153;BME280;56261;51.580;4.578;2023-05-08T07:13:59;102257.69;;;15.01;100.00
69153;BME280;56261;51.580;4.578;2023-05-08T07:16:25;102258.69;;;15.08;100.00
69153;BME280;56261;51.580;4.578;2023-05-08T07:18:50;102254.72;;;15.21;100.00
69153;BME280;56261;51.580;4.578;2023-05-08T07:21:15;102264.69;;;14.86;100.00
69153;BME280;56261;51.580;4.578;2023-05-08T07:23:42;102248.47;;;15.12;100.00
69153;BME280;56261;51.580;4.578;2023-05-08T07:26:08;102252.03;;;15.37;100.00
69153;BME280;56261;51.580;4.578;2023-05-08T07:28:33;102250.53;;;15.34;100.00
69153;BME280;56261;51.580;4.578;2023-05-08T07:30:59;102248.66;;;15.35;100.00
69153;BME280;56261;51.580;4.578;2023-05-08T07:33:24;102255.38;;;15.31;100.00
69153;BME280;56261;51.580;4.578;2023-05-08T07:35:50;102251.16;;;15.12;100.00
69153;BME280;56261;51.580;4.578;2023-05-08T07:38:15;102258.47;;;14.93;100.00
69153;BME280;56261;51.580;4.578;2023-05-08T07:40:41;102256.28;;;14.81;100.00
69153;BME280;56261;51.580;4.578;2023-05-08T07:43:06;102250.47;;;15.10;100.00
69153;BME280;56261;51.580;4.578;2023-05-08T07:45:31;102253.66;;;15.05;100.00
69153;BME280;56261;51.580;4.578;2023-05-08T07:47:58;102250.31;;;15.20;100.00
69153;BME280;56261;51.580;4.578;2023-05-08T07:50:25;102258.47;;;14.85;100.00
69153;BME280;56261;51.580;4.578;2023-05-08T07:52:51;102258.84;;;14.99;100.00
69153;BME280;56261;51.580;4.578;2023-05-08T07:55:18;102261.88;;;15.04;100.00
69153;BME280;56261;51.580;4.578;2023-05-08T07:57:43;102262.72;;;14.96;100.00
69153;BME280;56261;51.580;4.578;2023-05-08T08:00:13;102261.97;;;14.78;100.00
69153;BME280;56261;51.580;4.578;2023-05-08T08:02:39;102268.19;;;14.78;100.00
69153;BME280;56261;51.580;4.578;2023-05-08T08:05:05;102261.16;;;14.93;100.00
69153;BME280;56261;51.580;4.578;2023-05-08T08:07:31;102264.00;;;14.84;100.00
69153;BME280;56261;51.580;4.578;2023-05-08T08:10:01;102262.50;;;14.81;100.00
69153;BME280;56261;51.580;4.578;2023-05-08T08:12:27;102262.72;;;14.96;100.00
69153;BME280;56261;51.580;4.578;2023-05-08T08:14:53;102269.19;;;15.36;100.00
69153;BME280;56261;51.580;4.578;2023-05-08T08:17:18;102271.19;;;15.50;100.00
69153;BME280;56261;51.580;4.578;2023-05-08T08:19:44;102280.66;;;15.71;100.00
69153;BME280;56261;51.580;4.578;2023-05-08T08:22:09;102284.88;;;15.90;100.00
69153;BME280;56261;51.580;4.578;2023-05-08T08:24:34;102276.56;;;15.67;100.00
69153;BME280;56261;51.580;4.578;2023-05-08T08:27:00;102273.09;;;15.74;100.00
69153;BME280;56261;51.580;4.578;2023-05-08T08:29:26;102274.75;;;16.00;100.00
69153;BME280;56261;51.580;4.578;2023-05-08T08:31:51;102273.00;;;16.32;100.00
69153;BME280;56261;51.580;4.578;2023-05-08T08:34:17;102270.38;;;15.99;100.00
69153;BME280;56261;51.580;4.578;2023-05-08T08:36:42;102265.72;;;16.49;100.00
69153;BME280;56261;51.580;4.578;2023-05-08T08:39:08;102257.22;;;16.68;100.00
69153;BME280;56261;51.580;4.578;2023-05-08T08:41:33;102267.03;;;15.97;100.00
69153;BME280;56261;51.580;4.578;2023-05-08T08:43:58;102256.81;;;16.88;100.00
69153;BME280;56261;51.580;4.578;2023-05-08T08:46:26;102258.50;;;17.20;100.00
69153;BME280;56261;51.580;4.578;2023-05-08T08:48:54;102258.03;;;17.39;100.00
69153;BME280;56261;51.580;4.578;2023-05-08T08:51:25;102261.25;;;16.72;100.00
69153;BME280;56261;51.580;4.578;2023-05-08T08:54:13;102259.50;;;16.88;100.00
69153;BME280;56261;51.580;4.578;2023-05-08T08:56:40;102257.13;;;17.24;100.00
69153;BME280;56261;51.580;4.578;2023-05-08T08:59:10;102247.41;;;17.15;100.00
69153;BME280;56261;51.580;4.578;2023-05-08T09:01:38;102255.59;;;17.68;100.00
69153;BME280;56261;51.580;4.578;2023-05-08T09:04:03;102252.59;;;17.62;100.00
69153;BME280;56261;51.580;4.578;2023-05-08T09:06:36;102248.44;;;17.75;100.00
69153;BME280;56261;51.580;4.578;2023-05-08T09:09:02;102260.44;;;17.72;100.00
69153;BME280;56261;51.580;4.578;2023-05-08T09:11:28;102261.50;;;17.48;100.00
69153;BME280;56261;51.580;4.578;2023-05-08T09:13:55;102257.75;;;18.25;100.00
69153;BME280;56261;51.580;4.578;2023-05-08T09:16:21;102265.50;;;18.43;100.00
69153;BME280;56261;51.580;4.578;2023-05-08T09:18:46;102269.94;;;18.51;100.00
69153;BME280;56261;51.580;4.578;2023-05-08T09:21:12;102263.72;;;18.65;100.00
69153;BME280;56261;51.580;4.578;2023-05-08T09:26:32;102271.56;;;18.15;100.00
69153;BME280;56261;51.580;4.578;2023-05-08T09:29:07;102262.25;;;19.57;100.00
69153;BME280;56261;51.580;4.578;2023-05-08T09:31:42;102250.81;;;20.46;100.00
69153;BME280;56261;51.580;4.578;2023-05-08T09:34:08;102244.78;;;20.16;100.00
69153;BME280;56261;51.580;4.578;2023-05-08T09:36:34;102259.50;;;20.35;100.00
69153;BME280;56261;51.580;4.578;2023-05-08T09:39:01;102255.44;;;20.17;100.00
69153;BME280;56261;51.580;4.578;2023-05-08T09:41:26;102262.09;;;19.00;100.00
69153;BME280;56261;51.580;4.578;2023-05-08T09:44:00;102268.34;;;19.01;100.00
69153;BME280;56261;51.580;4.578;2023-05-08T09:46:26;102255.53;;;19.53;100.00
69153;BME280;56261;51.580;4.578;2023-05-08T09:48:53;102253.22;;;19.49;100.00
69153;BME280;56261;51.580;4.578;2023-05-08T09:51:19;102251.22;;;19.37;100.00
69153;BME280;56261;51.580;4.578;2023-05-08T09:53:45;102259.16;;;19.38;100.00
69153;BME280;56261;51.580;4.578;2023-05-08T09:56:11;102255.75;;;19.73;100.00
69153;BME280;56261;51.580;4.578;2023-05-08T09:58:41;102259.78;;;19.83;100.00
69153;BME280;56261;51.580;4.578;2023-05-08T10:01:08;102257.66;;;19.57;100.00
69153;BME280;56261;51.580;4.578;2023-05-08T10:03:51;102247.38;;;20.30;100.00
69153;BME280;56261;51.580;4.578;2023-05-08T10:06:16;102255.75;;;20.01;100.00
69153;BME280;56261;51.580;4.578;2023-05-08T10:08:42;102254.75;;;20.85;100.00
69153;BME280;56261;51.580;4.578;2023-05-08T10:11:14;102258.97;;;20.18;100.00
69153;BME280;56261;51.580;4.578;2023-05-08T10:13:40;102258.50;;;19.36;100.00
69153;BME280;56261;51.580;4.578;2023-05-08T10:16:09;102267.94;;;19.40;100.00
69153;BME280;56261;51.580;4.578;2023-05-08T10:18:38;102257.53;;;18.86;100.00
69153;BME280;56261;51.580;4.578;2023-05-08T10:21:06;102263.06;;;18.48;100.00
69153;BME280;56261;51.580;4.578;2023-05-08T10:23:33;102258.06;;;19.54;100.00
69153;BME280;56261;51.580;4.578;2023-05-08T10:26:06;102256.19;;;19.55;100.00
69153;BME280;56261;51.580;4.578;2023-05-08T10:28:43;102259.97;;;18.96;100.00
69153;BME280;56261;51.580;4.578;2023-05-08T10:31:11;102256.72;;;18.85;100.00
69153;BME280;56261;51.580;4.578;2023-05-08T10:33:39;102244.97;;;18.78;100.00
69153;BME280;56261;51.580;4.578;2023-05-08T10:36:06;102251.38;;;18.92;100.00
69153;BME280;56261;51.580;4.578;2023-05-08T10:38:36;102250.09;;;18.88;100.00
69153;BME280;56261;51.580;4.578;2023-05-08T10:41:02;102249.16;;;19.17;100.00
69153;BME280;56261;51.580;4.578;2023-05-08T10:43:29;102257.44;;;19.80;100.00
69153;BME280;56261;51.580;4.578;2023-05-08T10:45:56;102252.78;;;19.96;100.00
69153;BME280;56261;51.580;4.578;2023-05-08T10:48:32;102244.94;;;19.58;100.00
69153;BME280;56261;51.580;4.578;2023-05-08T10:51:09;102251.78;;;19.11;100.00
69153;BME280;56261;51.580;4.578;2023-05-08T10:56:15;102243.38;;;19.20;100.00
69153;BME280;56261;51.580;4.578;2023-05-08T10:58:41;102245.63;;;19.17;100.00
69153;BME280;56261;51.580;4.578;2023-05-08T11:03:37;102231.47;;;19.00;100.00
69153;BME280;56261;51.580;4.578;2023-05-08T11:06:03;102234.81;;;18.65;100.00
69153;BME280;56261;51.580;4.578;2023-05-08T11:08:30;102228.16;;;18.46;100.00
69153;BME280;56261;51.580;4.578;2023-05-08T11:15:53;102226.88;;;19.37;100.00
69153;BME280;56261;51.580;4.578;2023-05-08T11:18:20;102220.34;;;19.53;100.00
69153;BME280;56261;51.580;4.578;2023-05-08T11:20:57;102221.31;;;19.95;100.00
69153;BME280;56261;51.580;4.578;2023-05-08T11:23:26;102224.94;;;19.31;100.00
69153;BME280;56261;51.580;4.578;2023-05-08T11:26:03;102218.81;;;19.22;100.00
69153;BME280;56261;51.580;4.578;2023-05-08T11:28:36;102217.78;;;19.01;100.00
69153;BME280;56261;51.580;4.578;2023-05-08T11:31:03;102229.00;;;18.98;100.00
69153;BME280;56261;51.580;4.578;2023-05-08T11:33:35;102226.69;;;18.65;100.00
69153;BME280;56261;51.580;4.578;2023-05-08T11:36:18;102212.06;;;18.75;100.00
69153;BME280;56261;51.580;4.578;2023-05-08T11:39:09;102215.66;;;19.40;100.00
69153;BME280;56261;51.580;4.578;2023-05-08T11:41:39;102216.28;;;18.62;100.00
69153;BME280;56261;51.580;4.578;2023-05-08T11:46:43;102218.25;;;19.05;100.00
69153;BME280;56261;51.580;4.578;2023-05-08T11:49:14;102219.41;;;18.96;100.00
69153;BME280;56261;51.580;4.578;2023-05-08T11:51:48;102219.47;;;18.51;100.00
69153;BME280;56261;51.580;4.578;2023-05-08T11:54:16;102226.00;;;18.42;100.00
69153;BME280;56261;51.580;4.578;2023-05-08T11:56:45;102221.63;;;18.26;100.00
69153;BME280;56261;51.580;4.578;2023-05-08T11:59:10;102229.44;;;17.91;100.00
69153;BME280;56261;51.580;4.578;2023-05-08T12:01:37;102224.03;;;18.06;100.00
69153;BME280;56261;51.580;4.578;2023-05-08T12:04:09;102218.28;;;18.09;100.00
69153;BME280;56261;51.580;4.578;2023-05-08T12:06:36;102209.75;;;18.57;100.00
69153;BME280;56261;51.580;4.578;2023-05-08T12:09:08;102200.97;;;18.84;100.00
69153;BME280;56261;51.580;4.578;2023-05-08T12:11:33;102201.56;;;18.80;100.00
69153;BME280;56261;51.580;4.578;2023-05-08T12:13:59;102203.91;;;19.04;100.00
69153;BME280;56261;51.580;4.578;2023-05-08T12:16:24;102202.94;;;18.61;100.00
69153;BME280;56261;51.580;4.578;2023-05-08T12:18:51;102208.16;;;18.77;100.00
69153;BME280;56261;51.580;4.578;2023-05-08T12:21:17;102206.72;;;18.30;100.00
69153;BME280;56261;51.580;4.578;2023-05-08T12:23:43;102197.69;;;18.23;100.00
69153;BME280;56261;51.580;4.578;2023-05-08T12:26:09;102195.97;;;18.52;100.00
69153;BME280;56261;51.580;4.578;2023-05-08T12:28:37;102188.94;;;18.36;100.00
69153;BME280;56261;51.580;4.578;2023-05-08T12:31:02;102190.91;;;18.63;100.00
69153;BME280;56261;51.580;4.578;2023-05-08T12:33:32;102193.78;;;18.77;100.00
69153;BME280;56261;51.580;4.578;2023-05-08T12:36:00;102200.41;;;18.74;100.00
69153;BME280;56261;51.580;4.578;2023-05-08T12:38:26;102194.28;;;19.02;100.00
69153;BME280;56261;51.580;4.578;2023-05-08T12:40:52;102187.59;;;18.98;100.00
69153;BME280;56261;51.580;4.578;2023-05-08T12:43:20;102187.09;;;19.09;100.00
69153;BME280;56261;51.580;4.578;2023-05-08T12:45:45;102187.38;;;19.42;100.00
69153;BME280;56261;51.580;4.578;2023-05-08T12:48:15;102182.38;;;19.67;100.00
69153;BME280;56261;51.580;4.578;2023-05-08T12:50:42;102180.88;;;19.15;100.00
69153;BME280;56261;51.580;4.578;2023-05-08T12:53:09;102183.28;;;19.25;100.00
69153;BME280;56261;51.580;4.578;2023-05-08T12:55:37;102175.13;;;19.46;100.00
69153;BME280;56261;51.580;4.578;2023-05-08T12:58:06;102180.88;;;19.15;100.00
69153;BME280;56261;51.580;4.578;2023-05-08T13:00:41;102173.09;;;19.05;100.00
69153;BME280;56261;51.580;4.578;2023-05-08T13:03:08;102170.59;;;19.25;100.00
69153;BME280;56261;51.580;4.578;2023-05-08T13:05:36;102174.16;;;19.82;100.00
69153;BME280;56261;51.580;4.578;2023-05-08T13:08:06;102171.25;;;19.84;100.00
69153;BME280;56261;51.580;4.578;2023-05-08T13:10:54;102156.97;;;19.97;100.00
69153;BME280;56261;51.580;4.578;2023-05-08T13:13:22;102149.13;;;20.15;100.00
69153;BME280;56261;51.580;4.578;2023-05-08T13:15:49;102147.50;;;20.21;100.00
69153;BME280;56261;51.580;4.578;2023-05-08T13:18:15;102151.84;;;20.57;100.00
69153;BME280;56261;51.580;4.578;2023-05-08T13:20:41;102142.03;;;20.62;100.00
69153;BME280;56261;51.580;4.578;2023-05-08T13:23:08;102154.88;;;19.92;100.00
69153;BME280;56261;51.580;4.578;2023-05-08T13:25:35;102159.44;;;19.92;100.00